Time;durP1;ratioP1;P1;durP2;ratioP2;P2;SDS_P1;SDS_P2;PMS_P1;PMS_P2;Temp;Humidity;BMP_temperature;BMP_pressure;BME280_temperature;BME280_humidity;BME280_pressure;Samples;Min_cycle;Max_cycle;Signal;HPM_P1;HPM_P2
2022/12/08 00:01:13;;;;;;;47.88;30.77;;;6.40;99.90;;;;;;4973253;28;20038;-68
2022/12/08 00:03:39;;;;;;;50.97;32.85;;;6.30;99.90;;;;;;4973377;28;20027;-69
2022/12/08 00:11:36;;;;;;;52.03;33.72;;;6.20;99.90;;;;;;4969181;28;20034;-67
2022/12/08 00:14:02;;;;;;;46.22;31.70;;;6.20;99.90;;;;;;4973168;28;20031;-67
2022/12/08 00:16:28;;;;;;;48.25;31.58;;;6.20;99.90;;;;;;4955637;28;20065;-67
2022/12/08 00:18:53;;;;;;;49.20;30.90;;;6.20;99.90;;;;;;4973066;28;20058;-66
2022/12/08 00:21:19;;;;;;;44.05;30.48;;;6.30;99.90;;;;;;4972385;28;20019;-68
2022/12/08 00:23:45;;;;;;;53.80;33.25;;;6.20;99.90;;;;;;4972834;28;20085;-68
2022/12/08 00:26:14;;;;;;;50.13;31.95;;;6.20;99.90;;;;;;4960499;28;20381;-68
2022/12/08 00:28:40;;;;;;;49.00;30.52;;;6.20;99.90;;;;;;4961326;28;20039;-68
2022/12/08 00:31:09;;;;;;;44.58;30.67;;;6.10;99.90;;;;;;4970599;28;20086;-69
2022/12/08 00:33:38;;;;;;;46.65;31.20;;;6.20;99.90;;;;;;4955332;28;20041;-67
2022/12/08 00:36:12;;;;;;;43.22;29.38;;;6.10;99.90;;;;;;4941660;28;20039;-68
2022/12/08 00:38:43;;;;;;;47.70;33.72;;;6.10;99.90;;;;;;4969611;28;20133;-70
2022/12/08 00:42:10;;;;;;;45.75;29.42;;;6.10;99.90;;;;;;4970361;28;20035;-69
2022/12/08 00:44:08;;;;;;;43.22;28.25;;;6.10;99.90;;;;;;4953868;28;20388;-68
2022/12/08 00:46:34;;;;;;;40.47;26.23;;;6.10;99.90;;;;;;4971535;28;20059;-68
2022/12/08 00:49:00;;;;;;;40.42;27.05;;;6.00;99.90;;;;;;4970228;28;20023;-68
2022/12/08 00:51:26;;;;;;;33.58;23.98;;;6.00;99.90;;;;;;4972388;28;20436;-68
2022/12/08 00:53:52;;;;;;;32.00;21.75;;;5.90;99.90;;;;;;4971593;28;20034;-68
2022/12/08 00:56:17;;;;;;;37.33;22.73;;;5.90;99.90;;;;;;4968363;28;20133;-69
2022/12/08 00:58:43;;;;;;;33.97;22.58;;;5.90;99.90;;;;;;4966580;28;20034;-68
2022/12/08 01:01:11;;;;;;;32.95;20.35;;;5.90;99.90;;;;;;4964535;28;20034;-67
2022/12/08 01:03:37;;;;;;;32.95;21.95;;;6.00;99.90;;;;;;4966264;28;20635;-69
2022/12/08 01:06:04;;;;;;;30.88;20.35;;;6.00;99.90;;;;;;4970384;28;20027;-73
2022/12/08 01:08:30;;;;;;;34.30;20.88;;;6.10;99.90;;;;;;4969009;28;20027;-68
2022/12/08 01:11:01;;;;;;;39.95;22.95;;;6.10;99.90;;;;;;4959905;28;20027;-67
2022/12/08 01:13:30;;;;;;;37.55;22.35;;;6.20;99.90;;;;;;4971564;28;20039;-71
2022/12/08 01:15:56;;;;;;;31.23;20.88;;;6.20;99.90;;;;;;4971581;28;20031;-67
2022/12/08 01:18:21;;;;;;;29.45;19.75;;;6.20;99.90;;;;;;4971767;28;20454;-68
2022/12/08 01:20:47;;;;;;;30.92;21.02;;;6.20;99.90;;;;;;4971606;28;20026;-68
2022/12/08 01:23:16;;;;;;;36.92;21.42;;;6.10;99.90;;;;;;4971765;28;20037;-67
2022/12/08 01:25:41;;;;;;;31.23;18.90;;;6.10;99.90;;;;;;4971424;28;20041;-68
2022/12/08 01:28:07;;;;;;;30.42;22.23;;;6.10;99.90;;;;;;4954562;28;20034;-67
2022/12/08 01:30:33;;;;;;;35.78;21.48;;;6.10;99.90;;;;;;4971702;28;20156;-68
2022/12/08 01:32:59;;;;;;;31.85;22.15;;;6.10;99.90;;;;;;4971327;28;20054;-68
2022/12/08 01:35:25;;;;;;;40.63;26.13;;;6.10;99.90;;;;;;4967999;28;20110;-69
2022/12/08 01:37:50;;;;;;;41.63;23.83;;;6.00;99.90;;;;;;4970882;28;20535;-66
2022/12/08 01:40:16;;;;;;;35.78;22.08;;;5.90;99.90;;;;;;4971905;28;20037;-68
2022/12/08 01:42:42;;;;;;;41.33;24.33;;;5.90;99.90;;;;;;4969392;28;20102;-68
2022/12/08 01:45:30;;;;;;;32.95;19.65;;;5.90;99.90;;;;;;4969642;28;20023;-67
2022/12/08 01:48:03;;;;;;;39.17;26.08;;;5.90;99.90;;;;;;4969787;28;20654;-67
2022/12/08 01:50:29;;;;;;;34.42;19.60;;;5.90;99.90;;;;;;4971179;28;20031;-68
2022/12/08 01:53:08;;;;;;;29.05;19.60;;;5.80;99.90;;;;;;4954045;28;20102;-69
2022/12/08 01:55:48;;;;;;;31.85;20.85;;;5.80;99.90;;;;;;4974599;28;20030;-67
2022/12/08 01:58:20;;;;;;;35.70;21.38;;;5.80;99.90;;;;;;4975015;28;20555;-66
2022/12/08 02:00:46;;;;;;;32.40;22.90;;;5.80;99.90;;;;;;4971961;28;20487;-68
2022/12/08 02:03:24;;;;;;;29.25;19.23;;;5.70;99.90;;;;;;4975318;28;20076;-69
2022/12/08 02:05:53;;;;;;;34.08;20.75;;;5.70;99.90;;;;;;4973313;28;20030;-67
2022/12/08 02:08:20;;;;;;;34.47;21.83;;;5.60;99.90;;;;;;4962577;28;20030;-68
2022/12/08 02:10:47;;;;;;;37.22;23.58;;;5.60;99.90;;;;;;4975085;28;20046;-67
2022/12/08 02:13:19;;;;;;;32.63;21.20;;;5.60;99.90;;;;;;4974464;28;20649;-68
2022/12/08 02:16:06;;;;;;;30.48;21.08;;;5.60;99.90;;;;;;4956727;28;20047;-68
2022/12/08 02:19:15;;;;;;;31.70;21.45;;;5.70;99.90;;;;;;4967461;28;20062;-69
2022/12/08 02:21:47;;;;;;;33.60;20.92;;;5.80;99.90;;;;;;4933550;29;20036;-70
2022/12/08 02:24:31;;;;;;;31.25;20.45;;;5.80;99.90;;;;;;4934538;29;20032;-67
2022/12/08 02:27:06;;;;;;;37.10;23.00;;;5.70;99.90;;;;;;4933603;29;20047;-68
2022/12/08 02:30:24;;;;;;;36.80;23.38;;;5.80;99.90;;;;;;4933238;29;20047;-67
2022/12/08 02:33:33;;;;;;;31.98;21.67;;;5.90;99.90;;;;;;4858281;29;20051;-67
2022/12/08 02:36:02;;;;;;;32.40;19.63;;;5.90;99.90;;;;;;4933226;29;20075;-66
2022/12/08 02:38:35;;;;;;;31.95;20.75;;;5.80;99.90;;;;;;4933438;29;20102;-67
2022/12/08 02:41:16;;;;;;;;;;;5.70;99.90;;;;;;4934365;29;20127;-67
2022/12/08 02:43:46;;;;;;;32.45;20.15;;;5.80;99.90;;;;;;4933162;29;20444;-69
2022/12/08 02:46:25;;;;;;;32.30;21.52;;;5.80;99.90;;;;;;4933530;29;20062;-69
2022/12/08 02:48:52;;;;;;;33.53;21.50;;;5.70;99.90;;;;;;4933101;29;20043;-67
2022/12/08 02:51:18;;;;;;;37.42;23.35;;;5.80;99.90;;;;;;4935205;28;20035;-67
2022/12/08 02:53:45;;;;;;;32.40;20.23;;;5.90;99.90;;;;;;4956585;28;20081;-68
2022/12/08 02:56:44;;;;;;;30.20;20.35;;;5.80;99.90;;;;;;4973867;28;20023;-70
2022/12/08 02:59:41;;;;;;;28.60;20.00;;;5.70;99.90;;;;;;4973826;28;20042;-69
2022/12/08 03:02:29;;;;;;;30.42;20.55;;;5.70;99.90;;;;;;4973654;28;20104;-69
2022/12/08 03:04:58;;;;;;;36.83;24.42;;;5.80;99.90;;;;;;4973868;28;20034;-68
2022/12/08 03:07:34;;;;;;;33.00;21.33;;;5.60;99.90;;;;;;4944347;29;20067;-69
2022/12/08 03:10:29;;;;;;;34.40;21.70;;;5.60;99.90;;;;;;4974023;28;20034;-69
2022/12/08 03:13:02;;;;;;;30.88;21.95;;;5.60;99.90;;;;;;4973555;28;20121;-68
2022/12/08 03:15:30;;;;;;;34.28;21.20;;;5.60;99.90;;;;;;4947483;29;20041;-69
2022/12/08 03:17:59;;;;;;;30.13;21.08;;;5.60;99.90;;;;;;4969187;28;20497;-68
2022/12/08 03:20:28;;;;;;;38.60;23.42;;;5.50;99.90;;;;;;4973737;28;20037;-69
2022/12/08 03:22:57;;;;;;;37.17;23.45;;;5.60;99.90;;;;;;4973353;28;20034;-69
2022/12/08 03:25:29;;;;;;;48.58;30.15;;;5.50;99.90;;;;;;4973711;28;20122;-70
2022/12/08 03:27:55;;;;;;;47.20;30.52;;;5.50;99.90;;;;;;4973180;28;20034;-69
2022/12/08 03:30:21;;;;;;;43.55;27.23;;;5.40;99.90;;;;;;4973878;28;20023;-70
2022/12/08 03:32:56;;;;;;;53.28;27.85;;;5.40;99.90;;;;;;4973306;28;20035;-70
2022/12/08 03:35:26;;;;;;;37.58;24.95;;;5.40;99.90;;;;;;4973495;28;20039;-68
2022/12/08 03:38:00;;;;;;;42.03;28.67;;;5.40;99.90;;;;;;4973503;28;20035;-68
2022/12/08 03:40:25;;;;;;;35.80;23.58;;;5.30;99.90;;;;;;4973401;28;20035;-69
2022/12/08 03:42:51;;;;;;;52.22;28.60;;;5.30;99.90;;;;;;4973106;28;20038;-68
2022/12/08 03:45:17;;;;;;;37.20;24.60;;;5.30;99.90;;;;;;4973205;28;20100;-69
2022/12/08 03:47:43;;;;;;;41.65;24.83;;;5.20;99.90;;;;;;4973008;28;20497;-69
2022/12/08 03:50:10;;;;;;;44.88;28.15;;;5.30;99.90;;;;;;4972745;28;20031;-68
2022/12/08 03:52:36;;;;;;;37.30;23.80;;;5.30;99.90;;;;;;4973032;28;20034;-69
2022/12/08 03:55:02;;;;;;;33.13;21.45;;;5.40;99.90;;;;;;4972288;28;20089;-70
2022/12/08 03:57:27;;;;;;;32.55;22.45;;;5.40;99.90;;;;;;4972850;28;20109;-69
2022/12/08 03:59:53;;;;;;;33.65;21.70;;;5.50;99.90;;;;;;4972594;28;20037;-71
2022/12/08 04:02:19;;;;;;;36.20;22.40;;;5.50;99.90;;;;;;4972400;28;20497;-70
2022/12/08 04:04:45;;;;;;;34.28;20.33;;;5.60;99.90;;;;;;4972635;28;20606;-70
2022/12/08 04:07:11;;;;;;;30.75;20.75;;;5.70;99.90;;;;;;4972989;28;20019;-71
2022/12/08 04:09:37;;;;;;;44.72;28.60;;;5.60;99.90;;;;;;4972519;28;20114;-69
2022/12/08 04:12:03;;;;;;;39.25;26.70;;;5.60;99.90;;;;;;4973069;28;20569;-71
2022/12/08 04:14:29;;;;;;;31.58;21.63;;;5.70;99.90;;;;;;4972003;28;20670;-69
2022/12/08 04:16:55;;;;;;;35.45;20.83;;;5.70;99.90;;;;;;4967301;28;20062;-69
2022/12/08 04:19:21;;;;;;;31.65;20.95;;;5.80;99.90;;;;;;4972423;28;20031;-70
2022/12/08 04:21:47;;;;;;;33.40;22.13;;;5.80;99.90;;;;;;4971940;28;20097;-69
2022/12/08 04:24:13;;;;;;;34.50;23.15;;;5.70;99.90;;;;;;4971859;28;20304;-69
2022/12/08 04:26:39;;;;;;;35.15;23.25;;;5.70;99.90;;;;;;4962850;28;20043;-70
2022/12/08 04:29:04;;;;;;;37.05;23.67;;;5.70;99.90;;;;;;4952714;28;20078;-71
2022/12/08 04:31:30;;;;;;;35.28;23.80;;;5.70;99.90;;;;;;4958914;28;20074;-77
2022/12/08 04:33:56;;;;;;;32.70;22.10;;;5.70;99.90;;;;;;4965729;28;20402;-70
2022/12/08 04:36:22;;;;;;;35.00;22.60;;;5.70;99.90;;;;;;4971502;28;20106;-69
2022/12/08 04:38:48;;;;;;;34.75;21.60;;;5.70;99.90;;;;;;4954004;28;20046;-69
2022/12/08 04:41:13;;;;;;;33.05;21.73;;;5.70;99.90;;;;;;4971964;28;20671;-68
2022/12/08 04:43:40;;;;;;;35.80;24.02;;;5.70;99.90;;;;;;4971891;28;20034;-68
2022/12/08 04:46:10;;;;;;;34.35;22.58;;;5.70;99.90;;;;;;4971514;28;20043;-69
2022/12/08 04:48:37;;;;;;;30.75;20.05;;;5.70;99.90;;;;;;4972027;28;20039;-68
2022/12/08 04:51:04;;;;;;;35.20;23.23;;;5.70;99.90;;;;;;4971277;28;20385;-69
2022/12/08 04:53:29;;;;;;;33.35;22.75;;;5.70;99.90;;;;;;4971000;28;20043;-70
2022/12/08 04:55:55;;;;;;;41.60;26.70;;;5.80;99.90;;;;;;4971492;28;20041;-68
2022/12/08 04:58:21;;;;;;;40.95;25.40;;;5.80;99.90;;;;;;4971181;28;20030;-70
2022/12/08 05:00:47;;;;;;;45.33;28.77;;;5.80;99.90;;;;;;4971201;28;20034;-68
2022/12/08 05:03:13;;;;;;;40.63;28.00;;;5.80;99.90;;;;;;4970694;28;20484;-69
2022/12/08 05:05:40;;;;;;;49.75;29.92;;;5.90;99.90;;;;;;4971276;28;20436;-73
2022/12/08 05:08:06;;;;;;;31.77;20.90;;;5.90;99.90;;;;;;4968524;28;20073;-69
2022/12/08 05:10:32;;;;;;;33.63;22.95;;;5.90;99.90;;;;;;4953292;28;20054;-70
2022/12/08 05:13:00;;;;;;;35.58;22.58;;;5.90;99.90;;;;;;4970857;28;20038;-68
2022/12/08 05:15:25;;;;;;;36.17;23.70;;;6.00;99.90;;;;;;4971086;28;20110;-68
2022/12/08 05:17:51;;;;;;;44.13;33.03;;;6.00;99.90;;;;;;4970878;28;20131;-69
2022/12/08 05:20:17;;;;;;;65.63;44.33;;;6.00;99.90;;;;;;4971267;28;20054;-69
2022/12/08 05:22:43;;;;;;;59.75;45.10;;;6.00;99.90;;;;;;4971191;28;20026;-68
2022/12/08 05:25:09;;;;;;;59.85;44.10;;;6.00;99.90;;;;;;4970982;28;20033;-69
2022/12/08 05:27:35;;;;;;;50.45;36.85;;;6.00;99.90;;;;;;4971206;28;20421;-70
2022/12/08 05:30:01;;;;;;;44.88;29.35;;;5.90;99.90;;;;;;4973392;28;20023;-72
2022/12/08 05:32:27;;;;;;;36.75;24.60;;;5.90;99.90;;;;;;4975065;28;20037;-69
2022/12/08 05:34:53;;;;;;;36.00;23.40;;;5.80;99.90;;;;;;4974957;28;20093;-68
2022/12/08 05:37:19;;;;;;;39.28;24.48;;;5.90;99.90;;;;;;4975327;28;20500;-70
2022/12/08 05:39:44;;;;;;;37.80;25.45;;;5.90;99.90;;;;;;4975195;28;20039;-69
2022/12/08 05:42:10;;;;;;;47.05;31.67;;;6.00;99.90;;;;;;4974301;28;20118;-69
2022/12/08 05:44:36;;;;;;;60.38;43.40;;;6.00;99.90;;;;;;4974943;28;20474;-68
2022/12/08 05:47:02;;;;;;;92.80;70.10;;;5.90;99.90;;;;;;4975205;28;20133;-69
2022/12/08 05:49:28;;;;;;;88.75;65.18;;;6.00;99.90;;;;;;4975292;28;20027;-69
2022/12/08 05:51:54;;;;;;;87.72;63.97;;;6.00;99.90;;;;;;4975342;28;20038;-69
2022/12/08 05:54:20;;;;;;;100.30;71.22;;;6.00;99.90;;;;;;4974923;28;20477;-73
2022/12/08 05:56:45;;;;;;;84.45;57.97;;;5.90;99.90;;;;;;4956178;28;20071;-68
2022/12/08 05:59:11;;;;;;;74.47;48.55;;;6.00;99.90;;;;;;4974374;28;20474;-68
2022/12/08 06:01:37;;;;;;;70.45;47.92;;;6.00;99.90;;;;;;4974448;28;20669;-69
2022/12/08 06:04:04;;;;;;;68.18;41.70;;;6.00;99.90;;;;;;4956486;28;20038;-69
2022/12/08 06:06:35;;;;;;;58.20;36.72;;;5.90;99.90;;;;;;4974794;28;20030;-70
2022/12/08 06:09:02;;;;;;;56.78;38.03;;;5.80;99.90;;;;;;4974633;28;20038;-69
2022/12/08 06:11:30;;;;;;;39.50;26.48;;;5.80;99.90;;;;;;4971381;28;20053;-67
2022/12/08 06:13:57;;;;;;;41.25;26.50;;;5.80;99.90;;;;;;4965135;28;20470;-68
2022/12/08 06:16:26;;;;;;;43.63;28.58;;;5.70;99.90;;;;;;4974539;28;20027;-68
2022/12/08 06:18:52;;;;;;;36.08;25.67;;;5.80;99.90;;;;;;4974406;28;20037;-68
2022/12/08 06:21:19;;;;;;;39.63;25.95;;;5.80;99.90;;;;;;4956834;28;20392;-68
2022/12/08 06:23:48;;;;;;;36.47;24.88;;;5.80;99.90;;;;;;4974553;28;20033;-68
2022/12/08 06:26:15;;;;;;;38.05;23.92;;;5.70;99.90;;;;;;4974512;28;20165;-68
2022/12/08 06:28:41;;;;;;;35.42;24.48;;;5.60;99.90;;;;;;4973742;28;20027;-68
2022/12/08 06:31:15;;;;;;;43.72;26.70;;;5.60;99.90;;;;;;4974648;28;20474;-69
2022/12/08 06:33:42;;;;;;;38.05;25.38;;;5.60;99.90;;;;;;4974295;28;20033;-68
2022/12/08 06:36:10;;;;;;;36.97;25.48;;;5.60;99.90;;;;;;4974858;28;20049;-68
2022/12/08 06:38:36;;;;;;;43.08;29.30;;;5.70;99.90;;;;;;4974290;28;20528;-68
2022/12/08 06:41:02;;;;;;;51.92;32.80;;;5.80;99.90;;;;;;4973848;28;20049;-67
2022/12/08 06:43:28;;;;;;;41.83;28.60;;;5.70;99.90;;;;;;4973982;28;20026;-68
2022/12/08 06:45:56;;;;;;;39.25;25.83;;;5.60;99.90;;;;;;4970879;28;20784;-69
2022/12/08 06:48:25;;;;;;;37.63;26.08;;;5.60;99.90;;;;;;4951798;28;20396;-68
2022/12/08 06:50:51;;;;;;;39.42;28.42;;;5.60;99.90;;;;;;4970318;28;20033;-69
2022/12/08 06:53:17;;;;;;;47.35;29.17;;;5.70;99.90;;;;;;4971834;28;20034;-69
2022/12/08 06:55:50;;;;;;;53.20;34.35;;;5.70;99.90;;;;;;4967893;28;20118;-68
2022/12/08 06:58:17;;;;;;;48.90;33.00;;;5.70;99.90;;;;;;4968926;28;20039;-68
2022/12/08 07:00:43;;;;;;;41.28;28.77;;;5.60;99.90;;;;;;4972975;28;20029;-69
2022/12/08 07:03:10;;;;;;;46.42;30.27;;;5.70;99.90;;;;;;4969939;28;20635;-69
2022/12/08 07:06:00;;;;;;;42.40;28.88;;;5.80;99.90;;;;;;5069489;23;20500;-67
2022/12/08 07:08:26;;;;;;;42.67;29.92;;;5.90;99.90;;;;;;4967237;28;20069;-69
2022/12/08 07:10:51;;;;;;;56.60;35.70;;;5.90;99.90;;;;;;4972791;28;20043;-67
2022/12/08 07:13:17;;;;;;;54.22;36.58;;;6.00;99.90;;;;;;4967722;28;20046;-66
2022/12/08 07:15:43;;;;;;;40.63;29.45;;;5.80;99.90;;;;;;4967858;28;20027;-68
2022/12/08 07:18:09;;;;;;;42.50;27.48;;;5.80;99.90;;;;;;4971274;28;20023;-69
2022/12/08 07:20:35;;;;;;;44.65;27.25;;;5.80;99.90;;;;;;4968581;28;20087;-68
2022/12/08 07:23:01;;;;;;;42.30;29.60;;;5.90;99.90;;;;;;4967088;28;20421;-70
2022/12/08 07:25:26;;;;;;;47.75;31.58;;;5.90;99.90;;;;;;4969865;28;20035;-68
2022/12/08 07:27:52;;;;;;;39.97;28.13;;;6.00;99.90;;;;;;4970832;28;20066;-68
2022/12/08 07:30:18;;;;;;;39.58;28.27;;;6.00;99.90;;;;;;4968523;28;20031;-69
2022/12/08 07:32:44;;;;;;;40.13;27.80;;;6.10;99.90;;;;;;4968320;28;20027;-69
2022/12/08 07:35:10;;;;;;;39.53;26.55;;;6.10;99.90;;;;;;4970613;28;20046;-69
2022/12/08 07:37:37;;;;;;;47.20;30.63;;;6.10;99.90;;;;;;4971329;28;20294;-69
2022/12/08 07:40:04;;;;;;;44.33;28.63;;;6.10;99.90;;;;;;4967956;28;20033;-69
2022/12/08 07:42:30;;;;;;;50.25;33.42;;;6.20;99.90;;;;;;4967046;28;20026;-68
2022/12/08 07:44:56;;;;;;;34.45;23.38;;;6.40;99.90;;;;;;4953148;28;20409;-68
2022/12/08 07:47:22;;;;;;;42.53;29.70;;;6.40;99.90;;;;;;4968999;28;20478;-68
2022/12/08 07:49:48;;;;;;;49.40;30.70;;;6.60;99.90;;;;;;4965809;28;20023;-69
2022/12/08 07:52:13;;;;;;;40.22;30.17;;;6.60;99.90;;;;;;4967587;28;20117;-69
2022/12/08 07:54:39;;;;;;;34.92;24.45;;;6.70;99.90;;;;;;4971241;28;20043;-68
2022/12/08 07:57:05;;;;;;;41.10;27.52;;;6.70;99.90;;;;;;4972506;28;20166;-68
2022/12/08 07:59:31;;;;;;;42.85;28.83;;;6.60;99.90;;;;;;4972124;28;20366;-73
2022/12/08 08:01:57;;;;;;;38.15;26.05;;;6.40;99.90;;;;;;4971160;28;20424;-68
2022/12/08 08:04:23;;;;;;;48.47;29.98;;;6.30;99.90;;;;;;4970410;28;20030;-68
2022/12/08 08:06:49;;;;;;;47.80;29.38;;;6.40;99.90;;;;;;4957878;28;20043;-69
2022/12/08 08:09:15;;;;;;;47.47;29.92;;;6.30;99.90;;;;;;4972170;28;20037;-68
2022/12/08 08:11:41;;;;;;;36.90;25.77;;;6.40;99.90;;;;;;4971633;28;20153;-68
2022/12/08 08:14:07;;;;;;;34.15;23.83;;;6.40;99.90;;;;;;4971613;28;20485;-69
2022/12/08 08:16:32;;;;;;;37.13;25.20;;;6.50;99.90;;;;;;4958710;28;20019;-69
2022/12/08 08:18:58;;;;;;;39.33;23.45;;;6.60;99.90;;;;;;4971018;28;20394;-69
2022/12/08 08:21:24;;;;;;;41.42;26.50;;;6.50;99.90;;;;;;4969993;28;20102;-69
2022/12/08 08:23:50;;;;;;;36.03;24.20;;;6.70;99.90;;;;;;4972082;28;20705;-68
2022/12/08 08:26:16;;;;;;;33.72;22.25;;;6.90;99.90;;;;;;4972613;28;20113;-68
2022/12/08 08:28:44;;;;;;;35.22;23.70;;;7.00;99.90;;;;;;4971793;28;20031;-68
2022/12/08 08:31:11;;;;;;;32.88;22.77;;;6.90;99.90;;;;;;4972403;28;20382;-69
2022/12/08 08:33:37;;;;;;;36.70;23.77;;;7.00;99.90;;;;;;4972174;28;20089;-68
2022/12/08 08:36:08;;;;;;;35.85;21.52;;;7.10;99.90;;;;;;4971988;28;20038;-68
2022/12/08 08:38:38;;;;;;;;;;;7.40;99.90;;;;;;4972379;28;20385;-68
2022/12/08 08:41:10;;;;;;;32.85;22.48;;;7.50;99.90;;;;;;4972110;28;20008;-69
2022/12/08 08:43:36;;;;;;;35.97;22.13;;;7.60;99.90;;;;;;4971553;28;20030;-68
2022/12/08 08:46:05;;;;;;;33.45;21.98;;;7.70;99.90;;;;;;4972096;28;20070;-69
2022/12/08 08:48:32;;;;;;;33.05;22.80;;;7.60;99.90;;;;;;4969846;28;20106;-69
2022/12/08 08:50:58;;;;;;;31.85;19.58;;;7.70;99.90;;;;;;4970821;28;20034;-69
2022/12/08 08:53:25;;;;;;;58.75;39.85;;;7.70;99.90;;;;;;4965301;28;20122;-68
2022/12/08 08:55:51;;;;;;;45.20;33.22;;;7.70;99.90;;;;;;4966983;28;20125;-69
2022/12/08 08:58:17;;;;;;;49.95;33.40;;;7.80;99.90;;;;;;4970853;28;20026;-69
2022/12/08 09:00:43;;;;;;;52.15;33.88;;;7.90;99.90;;;;;;4971558;28;20041;-68
2022/12/08 09:03:09;;;;;;;55.10;38.28;;;7.90;99.90;;;;;;4971303;28;20113;-69
2022/12/08 09:05:39;;;;;;;38.78;25.73;;;7.90;99.90;;;;;;4971165;28;20022;-69
2022/12/08 09:08:05;;;;;;;34.67;22.10;;;8.00;99.90;;;;;;4985682;28;20061;-68
2022/12/08 09:10:30;;;;;;;31.38;21.10;;;8.00;99.90;;;;;;4972709;28;20031;-68
2022/12/08 09:12:57;;;;;;;34.60;20.52;;;7.90;99.90;;;;;;4989982;28;20064;-68
2022/12/08 09:15:23;;;;;;;33.28;20.58;;;8.00;99.90;;;;;;4989500;28;20065;-67
2022/12/08 09:17:49;;;;;;;36.92;22.40;;;8.00;99.90;;;;;;4988555;28;20077;-68
2022/12/08 09:20:15;;;;;;;49.28;33.67;;;8.10;99.90;;;;;;4989862;28;20030;-70
2022/12/08 09:22:40;;;;;;;92.43;63.20;;;8.10;99.90;;;;;;4990498;28;20022;-68
2022/12/08 09:25:07;;;;;;;84.22;56.20;;;8.00;99.90;;;;;;4990262;28;20469;-68
2022/12/08 09:27:32;;;;;;;73.70;48.55;;;7.90;99.90;;;;;;4972156;28;20042;-69
2022/12/08 09:29:58;;;;;;;42.22;27.70;;;7.90;99.90;;;;;;4989952;28;20105;-75
2022/12/08 09:32:25;;;;;;;39.70;26.25;;;8.00;99.90;;;;;;4989931;28;20027;-67
2022/12/08 09:34:51;;;;;;;42.28;28.13;;;8.00;99.90;;;;;;4985849;28;20026;-67
2022/12/08 09:37:16;;;;;;;35.05;22.27;;;7.90;99.90;;;;;;4978199;28;20839;-67
2022/12/08 09:39:43;;;;;;;30.75;19.55;;;8.00;99.90;;;;;;4989552;28;20037;-67
2022/12/08 09:42:10;;;;;;;37.00;20.70;;;7.90;99.90;;;;;;4988908;28;20022;-67
2022/12/08 09:45:17;;;;;;;35.00;21.80;;;8.00;99.90;;;;;;4988463;28;20046;-67
2022/12/08 09:48:05;;;;;;;27.25;17.70;;;8.10;99.90;;;;;;4988476;28;20046;-71
2022/12/08 09:50:44;;;;;;;29.33;17.13;;;8.00;99.90;;;;;;4987212;28;20117;-70
2022/12/08 10:14:00;;;;;;;29.20;19.08;;;8.00;99.90;;;;;;5793183;24;20090;-76
2022/12/08 10:16:39;;;;;;;32.08;18.52;;;8.10;99.90;;;;;;4766589;24;20528;-77
2022/12/08 10:19:15;;;;;;;28.70;18.85;;;8.20;99.90;;;;;;4754606;30;20040;-73
2022/12/08 10:21:41;;;;;;;30.65;18.67;;;8.20;99.90;;;;;;4754407;30;20036;-75
2022/12/08 10:24:30;;;;;;;29.40;18.50;;;8.40;99.90;;;;;;4753269;30;20102;-73
2022/12/08 10:26:56;;;;;;;30.48;16.70;;;8.50;99.90;;;;;;4754842;30;20036;-72
2022/12/08 10:29:23;;;;;;;26.65;17.15;;;8.50;99.90;;;;;;4754215;30;20410;-72
2022/12/08 10:31:49;;;;;;;25.63;15.05;;;8.50;99.90;;;;;;4738291;30;20402;-73
2022/12/08 10:34:23;;;;;;;24.55;16.92;;;8.60;99.90;;;;;;4754463;30;20047;-72
2022/12/08 10:36:56;;;;;;;29.13;17.02;;;8.70;99.90;;;;;;4754914;30;20036;-73
2022/12/08 10:39:44;;;;;;;27.38;15.32;;;8.70;99.90;;;;;;4755107;30;20040;-74
2022/12/08 10:42:13;;;;;;;26.85;17.02;;;8.70;99.90;;;;;;4739620;30;20040;-73
2022/12/08 10:44:53;;;;;;;26.95;16.67;;;8.60;99.90;;;;;;4754771;30;20044;-73
2022/12/08 10:47:21;;;;;;;30.73;20.02;;;8.60;99.90;;;;;;4754767;30;20056;-74
2022/12/08 10:50:04;;;;;;;29.73;19.38;;;8.60;99.90;;;;;;4753097;30;20040;-71
2022/12/08 10:52:31;;;;;;;28.30;18.30;;;8.70;99.90;;;;;;4754843;30;20028;-72
2022/12/08 10:54:59;;;;;;;29.75;18.95;;;8.60;99.90;;;;;;4754507;30;20052;-72
2022/12/08 10:57:25;;;;;;;45.70;30.85;;;8.50;99.90;;;;;;4754100;30;20037;-72
2022/12/08 10:59:57;;;;;;;33.58;20.02;;;8.50;99.90;;;;;;4754518;30;20036;-73
2022/12/08 11:02:23;;;;;;;29.02;17.92;;;8.40;99.90;;;;;;4754556;30;20487;-72
2022/12/08 11:04:58;;;;;;;34.58;20.17;;;8.40;99.90;;;;;;4753109;30;20089;-71
2022/12/08 11:07:24;;;;;;;30.40;18.70;;;8.30;99.90;;;;;;4754643;30;20047;-72
2022/12/08 11:09:56;;;;;;;30.17;19.65;;;8.30;99.90;;;;;;4754315;30;20043;-71
2022/12/08 11:12:28;;;;;;;32.40;21.38;;;8.40;99.90;;;;;;4754346;30;20055;-71
2022/12/08 11:14:59;;;;;;;36.35;23.38;;;8.30;99.90;;;;;;4754151;30;20071;-72
2022/12/08 11:17:28;;;;;;;32.63;21.13;;;8.30;99.90;;;;;;4753032;30;20048;-72
2022/12/08 11:20:02;;;;;;;49.85;29.90;;;8.30;99.90;;;;;;4754638;30;20120;-72
2022/12/08 11:22:58;;;;;;;38.00;26.48;;;8.20;99.90;;;;;;4737918;30;20123;-72
2022/12/08 11:25:26;;;;;;;45.40;29.27;;;8.20;99.90;;;;;;4738369;30;20048;-72
2022/12/08 11:27:57;;;;;;;52.83;33.90;;;8.20;99.90;;;;;;4753985;30;20028;-72
2022/12/08 11:30:53;;;;;;;45.28;28.73;;;8.10;99.90;;;;;;4753933;30;20036;-73
2022/12/08 11:33:22;;;;;;;31.05;19.75;;;8.10;99.90;;;;;;4733970;30;20594;-74
2022/12/08 11:36:14;;;;;;;35.78;22.35;;;8.00;99.90;;;;;;4734236;30;20035;-73
2022/12/08 11:38:45;;;;;;;31.85;21.17;;;8.00;99.90;;;;;;4732253;30;20094;-73
2022/12/08 11:41:17;;;;;;;34.78;23.45;;;8.00;99.90;;;;;;4734339;30;20105;-73
2022/12/08 11:43:57;;;;;;;36.95;23.38;;;8.00;99.90;;;;;;4734165;30;20041;-72
2022/12/08 11:46:27;;;;;;;39.45;25.70;;;8.10;99.90;;;;;;4734218;30;20487;-72
2022/12/08 11:48:58;;;;;;;31.52;20.80;;;8.20;99.90;;;;;;4734083;30;20041;-73
2022/12/08 11:51:52;;;;;;;32.95;20.38;;;8.10;99.90;;;;;;4734236;30;20535;-72
2022/12/08 11:54:27;;;;;;;33.45;22.23;;;8.10;99.90;;;;;;4734047;30;20053;-74
2022/12/08 11:56:56;;;;;;;38.55;25.90;;;8.10;99.90;;;;;;4733933;30;20136;-74
2022/12/08 11:59:30;;;;;;;36.50;26.10;;;8.10;99.90;;;;;;4733723;30;20412;-72
2022/12/08 12:01:58;;;;;;;41.15;29.60;;;8.10;99.90;;;;;;4733779;30;20033;-72
2022/12/08 12:04:30;;;;;;;44.97;32.17;;;7.90;99.90;;;;;;4733474;30;20123;-72
2022/12/08 12:07:21;;;;;;;33.70;24.38;;;7.80;99.90;;;;;;4733612;30;20564;-72
2022/12/08 12:09:59;;;;;;;48.78;31.48;;;7.70;99.90;;;;;;4744037;30;20059;-72
2022/12/08 12:12:43;;;;;;;54.25;34.92;;;7.60;99.90;;;;;;4753424;30;20040;-76
2022/12/08 12:15:35;;;;;;;47.40;31.35;;;7.70;99.90;;;;;;4753197;30;20058;-72
2022/12/08 12:18:18;;;;;;;47.30;31.50;;;7.80;99.90;;;;;;4753159;30;20044;-74
2022/12/08 12:21:18;;;;;;;34.65;22.65;;;7.90;99.90;;;;;;4752128;30;20041;-74
2022/12/08 12:23:46;;;;;;;45.30;31.90;;;7.90;99.90;;;;;;4737067;30;20040;-72
2022/12/08 12:26:24;;;;;;;67.13;45.80;;;7.90;99.90;;;;;;4753016;30;20501;-72
2022/12/08 12:28:59;;;;;;;59.42;38.55;;;7.90;99.90;;;;;;4753124;30;20036;-73
2022/12/08 12:31:33;;;;;;;42.63;27.42;;;7.90;99.90;;;;;;4753046;30;20063;-73
2022/12/08 12:34:30;;;;;;;40.97;26.65;;;8.00;99.90;;;;;;4751459;30;20119;-72
2022/12/08 12:37:19;;;;;;;40.35;27.55;;;8.10;99.90;;;;;;4752612;30;20048;-76
2022/12/08 12:39:51;;;;;;;41.90;26.83;;;8.20;99.90;;;;;;4752872;30;20115;-72
2022/12/08 12:42:36;;;;;;;42.03;28.23;;;8.20;99.90;;;;;;4751917;30;20036;-73
2022/12/08 12:45:17;;;;;;;36.70;23.38;;;8.30;99.90;;;;;;4752904;30;20044;-72
2022/12/08 12:48:05;;;;;;;32.90;21.42;;;8.30;99.90;;;;;;4752896;30;20115;-72
2022/12/08 12:50:33;;;;;;;43.78;29.15;;;8.10;99.90;;;;;;4749096;30;20051;-72
2022/12/08 12:53:15;;;;;;;43.95;29.83;;;8.00;99.90;;;;;;4752940;30;20032;-73
2022/12/08 12:55:44;;;;;;;44.10;28.40;;;8.10;99.90;;;;;;4752724;30;20522;-72
2022/12/08 12:58:28;;;;;;;41.65;29.55;;;8.10;99.90;;;;;;4752657;30;20036;-71
2022/12/08 13:01:12;;;;;;;35.92;23.63;;;8.10;99.90;;;;;;4752789;30;20066;-71
2022/12/08 13:03:47;;;;;;;38.42;26.52;;;8.00;99.90;;;;;;4752661;30;20368;-73
2022/12/08 13:06:32;;;;;;;41.72;28.27;;;7.90;99.90;;;;;;4751122;30;20052;-72
2022/12/08 13:08:59;;;;;;;42.72;24.20;;;8.00;99.90;;;;;;4752699;30;20028;-72
2022/12/08 13:11:25;;;;;;;35.53;24.02;;;7.90;99.90;;;;;;4752646;30;20024;-72
2022/12/08 13:13:55;;;;;;;36.10;25.27;;;7.90;99.90;;;;;;4752567;30;20078;-72
2022/12/08 13:16:24;;;;;;;38.97;25.80;;;7.90;99.90;;;;;;4752360;30;20505;-72
2022/12/08 13:18:56;;;;;;;35.15;24.58;;;7.90;99.90;;;;;;4752516;30;20043;-72
2022/12/08 13:21:30;;;;;;;35.88;23.92;;;7.90;99.90;;;;;;4752477;30;20035;-73